sensor_id;sensor_type;location;lat;lon;timestamp;temperature;humidity
4594;DHT22;2309;51.674;8.368;2023-04-25T00:01:53;5.90;99.90
4594;DHT22;2309;51.674;8.368;2023-04-25T00:04:20;6.00;99.90
4594;DHT22;2309;51.674;8.368;2023-04-25T00:06:47;6.00;99.90
4594;DHT22;2309;51.674;8.368;2023-04-25T00:09:14;6.00;99.90
4594;DHT22;2309;51.674;8.368;2023-04-25T00:11:41;6.00;99.90
4594;DHT22;2309;51.674;8.368;2023-04-25T00:14:08;5.90;99.90
4594;DHT22;2309;51.674;8.368;2023-04-25T00:16:35;5.90;1.00
4594;DHT22;2309;51.674;8.368;2023-04-25T00:19:02;5.90;1.00
4594;DHT22;2309;51.674;8.368;2023-04-25T00:21:29;5.80;99.90
4594;DHT22;2309;51.674;8.368;2023-04-25T00:23:57;5.80;99.90
4594;DHT22;2309;51.674;8.368;2023-04-25T00:26:24;5.80;1.00
4594;DHT22;2309;51.674;8.368;2023-04-25T00:28:51;5.70;1.00
4594;DHT22;2309;51.674;8.368;2023-04-25T00:31:18;5.70;99.90
4594;DHT22;2309;51.674;8.368;2023-04-25T00:33:45;5.70;99.90
4594;DHT22;2309;51.674;8.368;2023-04-25T00:36:11;5.80;99.90
4594;DHT22;2309;51.674;8.368;2023-04-25T00:38:38;5.90;99.90
4594;DHT22;2309;51.674;8.368;2023-04-25T00:41:05;5.90;1.00
4594;DHT22;2309;51.674;8.368;2023-04-25T00:43:32;5.90;1.00
4594;DHT22;2309;51.674;8.368;2023-04-25T00:46:00;6.00;99.90
4594;DHT22;2309;51.674;8.368;2023-04-25T00:48:27;6.00;99.90
4594;DHT22;2309;51.674;8.368;2023-04-25T00:50:55;6.10;99.90
4594;DHT22;2309;51.674;8.368;2023-04-25T00:53:23;6.10;11.90
4594;DHT22;2309;51.674;8.368;2023-04-25T00:55:50;6.10;1.00
4594;DHT22;2309;51.674;8.368;2023-04-25T00:58:17;6.10;11.10
4594;DHT22;2309;51.674;8.368;2023-04-25T01:00:45;6.10;28.50
4594;DHT22;2309;51.674;8.368;2023-04-25T01:03:14;6.10;99.90
4594;DHT22;2309;51.674;8.368;2023-04-25T01:05:41;6.10;1.00
4594;DHT22;2309;51.674;8.368;2023-04-25T01:08:08;6.10;99.90
4594;DHT22;2309;51.674;8.368;2023-04-25T01:10:35;6.00;1.00
4594;DHT22;2309;51.674;8.368;2023-04-25T01:13:03;5.90;1.00
4594;DHT22;2309;51.674;8.368;2023-04-25T01:15:31;5.90;99.90
4594;DHT22;2309;51.674;8.368;2023-04-25T01:17:58;5.90;99.90
4594;DHT22;2309;51.674;8.368;2023-04-25T01:20:26;5.90;99.90
4594;DHT22;2309;51.674;8.368;2023-04-25T01:22:54;5.90;99.90
4594;DHT22;2309;51.674;8.368;2023-04-25T01:25:22;5.90;1.00
4594;DHT22;2309;51.674;8.368;2023-04-25T01:27:49;5.90;99.90
4594;DHT22;2309;51.674;8.368;2023-04-25T01:30:16;5.90;99.90
4594;DHT22;2309;51.674;8.368;2023-04-25T01:32:43;5.90;1.00
4594;DHT22;2309;51.674;8.368;2023-04-25T01:35:11;5.90;1.00
4594;DHT22;2309;51.674;8.368;2023-04-25T01:37:38;5.90;1.00
4594;DHT22;2309;51.674;8.368;2023-04-25T01:40:06;5.90;1.00
4594;DHT22;2309;51.674;8.368;2023-04-25T01:42:34;5.90;1.00
4594;DHT22;2309;51.674;8.368;2023-04-25T01:45:01;5.90;1.00
4594;DHT22;2309;51.674;8.368;2023-04-25T01:47:28;5.90;1.00
4594;DHT22;2309;51.674;8.368;2023-04-25T01:49:57;6.00;99.90
4594;DHT22;2309;51.674;8.368;2023-04-25T01:52:24;5.90;1.00
4594;DHT22;2309;51.674;8.368;2023-04-25T01:54:51;5.90;1.00
4594;DHT22;2309;51.674;8.368;2023-04-25T01:57:19;6.00;99.90
4594;DHT22;2309;51.674;8.368;2023-04-25T01:59:46;6.00;46.60
4594;DHT22;2309;51.674;8.368;2023-04-25T02:02:12;5.90;99.90
4594;DHT22;2309;51.674;8.368;2023-04-25T02:04:39;5.90;99.90
4594;DHT22;2309;51.674;8.368;2023-04-25T02:07:08;5.80;99.90
4594;DHT22;2309;51.674;8.368;2023-04-25T02:09:34;5.80;99.90
4594;DHT22;2309;51.674;8.368;2023-04-25T02:12:01;5.80;99.90
4594;DHT22;2309;51.674;8.368;2023-04-25T02:14:28;5.70;99.90
4594;DHT22;2309;51.674;8.368;2023-04-25T02:16:55;5.70;99.90
4594;DHT22;2309;51.674;8.368;2023-04-25T02:19:22;5.60;99.90
4594;DHT22;2309;51.674;8.368;2023-04-25T02:21:49;5.60;99.90
4594;DHT22;2309;51.674;8.368;2023-04-25T02:24:16;5.60;99.90
4594;DHT22;2309;51.674;8.368;2023-04-25T02:26:43;5.60;99.90
4594;DHT22;2309;51.674;8.368;2023-04-25T02:29:10;5.60;99.90
4594;DHT22;2309;51.674;8.368;2023-04-25T02:31:37;5.60;99.90
4594;DHT22;2309;51.674;8.368;2023-04-25T02:34:03;6.40;99.90
4594;DHT22;2309;51.674;8.368;2023-04-25T02:36:30;5.60;99.90
4594;DHT22;2309;51.674;8.368;2023-04-25T02:38:59;5.60;99.90
4594;DHT22;2309;51.674;8.368;2023-04-25T02:41:27;5.60;99.90
4594;DHT22;2309;51.674;8.368;2023-04-25T02:43:55;5.60;99.90
4594;DHT22;2309;51.674;8.368;2023-04-25T02:46:22;5.60;99.90
4594;DHT22;2309;51.674;8.368;2023-04-25T02:48:49;5.60;99.90
4594;DHT22;2309;51.674;8.368;2023-04-25T02:51:16;5.60;99.90
4594;DHT22;2309;51.674;8.368;2023-04-25T02:53:43;5.50;99.90
4594;DHT22;2309;51.674;8.368;2023-04-25T02:56:10;5.60;99.90
4594;DHT22;2309;51.674;8.368;2023-04-25T02:58:37;5.50;99.90
4594;DHT22;2309;51.674;8.368;2023-04-25T03:01:04;5.50;99.90
4594;DHT22;2309;51.674;8.368;2023-04-25T03:03:31;5.50;99.90
4594;DHT22;2309;51.674;8.368;2023-04-25T03:05:57;5.60;99.90
4594;DHT22;2309;51.674;8.368;2023-04-25T03:08:24;5.60;99.90
4594;DHT22;2309;51.674;8.368;2023-04-25T03:10:53;5.60;99.90
4594;DHT22;2309;51.674;8.368;2023-04-25T03:13:21;5.60;99.90
4594;DHT22;2309;51.674;8.368;2023-04-25T03:15:48;5.70;99.90
4594;DHT22;2309;51.674;8.368;2023-04-25T03:18:17;5.70;99.90
4594;DHT22;2309;51.674;8.368;2023-04-25T03:20:43;5.60;99.90
4594;DHT22;2309;51.674;8.368;2023-04-25T03:23:10;5.70;99.90
4594;DHT22;2309;51.674;8.368;2023-04-25T03:25:37;5.60;99.90
4594;DHT22;2309;51.674;8.368;2023-04-25T03:28:04;5.60;99.90
4594;DHT22;2309;51.674;8.368;2023-04-25T03:30:31;5.70;99.90
4594;DHT22;2309;51.674;8.368;2023-04-25T03:32:57;5.70;99.90
4594;DHT22;2309;51.674;8.368;2023-04-25T03:35:25;5.70;99.90
4594;DHT22;2309;51.674;8.368;2023-04-25T03:37:51;5.70;99.90
4594;DHT22;2309;51.674;8.368;2023-04-25T03:40:18;5.70;99.90
4594;DHT22;2309;51.674;8.368;2023-04-25T03:42:45;5.80;99.90
4594;DHT22;2309;51.674;8.368;2023-04-25T03:45:12;5.80;99.90
4594;DHT22;2309;51.674;8.368;2023-04-25T03:47:39;5.70;99.90
4594;DHT22;2309;51.674;8.368;2023-04-25T03:50:06;5.70;99.90
4594;DHT22;2309;51.674;8.368;2023-04-25T03:52:33;5.80;99.90
4594;DHT22;2309;51.674;8.368;2023-04-25T03:55:01;5.80;99.90
4594;DHT22;2309;51.674;8.368;2023-04-25T03:57:30;5.80;99.90
4594;DHT22;2309;51.674;8.368;2023-04-25T03:59:57;5.80;99.90
4594;DHT22;2309;51.674;8.368;2023-04-25T04:02:25;5.80;99.90
4594;DHT22;2309;51.674;8.368;2023-04-25T04:04:53;5.80;99.90
4594;DHT22;2309;51.674;8.368;2023-04-25T04:07:23;5.80;99.90
4594;DHT22;2309;51.674;8.368;2023-04-25T04:10:02;5.80;99.90
4594;DHT22;2309;51.674;8.368;2023-04-25T04:12:20;5.80;99.90
4594;DHT22;2309;51.674;8.368;2023-04-25T04:14:46;5.80;99.90
4594;DHT22;2309;51.674;8.368;2023-04-25T04:17:15;5.80;99.90
4594;DHT22;2309;51.674;8.368;2023-04-25T04:19:42;5.80;99.90
4594;DHT22;2309;51.674;8.368;2023-04-25T04:22:09;5.80;99.90
4594;DHT22;2309;51.674;8.368;2023-04-25T04:24:36;5.80;99.90
4594;DHT22;2309;51.674;8.368;2023-04-25T04:27:03;5.80;99.90
4594;DHT22;2309;51.674;8.368;2023-04-25T04:29:29;5.80;99.90
4594;DHT22;2309;51.674;8.368;2023-04-25T04:31:56;5.80;99.90
4594;DHT22;2309;51.674;8.368;2023-04-25T04:34:23;5.90;99.90
4594;DHT22;2309;51.674;8.368;2023-04-25T04:36:51;5.80;99.90
4594;DHT22;2309;51.674;8.368;2023-04-25T04:39:18;5.90;99.90
4594;DHT22;2309;51.674;8.368;2023-04-25T04:41:46;5.80;99.90
4594;DHT22;2309;51.674;8.368;2023-04-25T04:44:13;5.90;99.90
4594;DHT22;2309;51.674;8.368;2023-04-25T04:46:39;5.80;99.90
4594;DHT22;2309;51.674;8.368;2023-04-25T04:49:09;5.90;99.90
4594;DHT22;2309;51.674;8.368;2023-04-25T04:51:36;5.90;99.90
4594;DHT22;2309;51.674;8.368;2023-04-25T04:54:03;5.90;99.90
4594;DHT22;2309;51.674;8.368;2023-04-25T04:56:30;5.90;99.90
4594;DHT22;2309;51.674;8.368;2023-04-25T04:58:58;6.30;99.90
4594;DHT22;2309;51.674;8.368;2023-04-25T05:01:25;5.90;99.90
4594;DHT22;2309;51.674;8.368;2023-04-25T05:03:52;6.00;99.90
4594;DHT22;2309;51.674;8.368;2023-04-25T05:06:21;6.00;99.90
4594;DHT22;2309;51.674;8.368;2023-04-25T05:08:49;5.90;99.90
4594;DHT22;2309;51.674;8.368;2023-04-25T05:11:16;5.90;99.90
4594;DHT22;2309;51.674;8.368;2023-04-25T05:13:43;5.90;99.90
4594;DHT22;2309;51.674;8.368;2023-04-25T05:16:11;5.90;99.90
4594;DHT22;2309;51.674;8.368;2023-04-25T05:18:39;6.00;99.90
4594;DHT22;2309;51.674;8.368;2023-04-25T05:21:05;6.00;99.90
4594;DHT22;2309;51.674;8.368;2023-04-25T05:23:32;6.00;99.90
4594;DHT22;2309;51.674;8.368;2023-04-25T05:25:59;6.00;99.90
4594;DHT22;2309;51.674;8.368;2023-04-25T05:28:26;6.00;99.90
4594;DHT22;2309;51.674;8.368;2023-04-25T05:30:53;6.00;99.90
4594;DHT22;2309;51.674;8.368;2023-04-25T05:33:20;6.00;99.90
4594;DHT22;2309;51.674;8.368;2023-04-25T05:35:46;6.10;99.90
4594;DHT22;2309;51.674;8.368;2023-04-25T05:38:15;6.10;99.90
4594;DHT22;2309;51.674;8.368;2023-04-25T05:40:43;6.10;99.90
4594;DHT22;2309;51.674;8.368;2023-04-25T05:43:12;6.10;99.90
4594;DHT22;2309;51.674;8.368;2023-04-25T05:45:39;6.20;99.90
4594;DHT22;2309;51.674;8.368;2023-04-25T05:48:05;6.20;99.90
4594;DHT22;2309;51.674;8.368;2023-04-25T05:50:32;6.30;99.90
4594;DHT22;2309;51.674;8.368;2023-04-25T05:53:00;6.30;99.90
4594;DHT22;2309;51.674;8.368;2023-04-25T05:55:32;6.40;99.90
4594;DHT22;2309;51.674;8.368;2023-04-25T06:03:38;6.50;99.90
4594;DHT22;2309;51.674;8.368;2023-04-25T06:06:16;6.60;99.90
4594;DHT22;2309;51.674;8.368;2023-04-25T06:08:47;6.70;99.90
4594;DHT22;2309;51.674;8.368;2023-04-25T06:11:09;6.70;99.90
4594;DHT22;2309;51.674;8.368;2023-04-25T06:13:36;6.70;99.90
4594;DHT22;2309;51.674;8.368;2023-04-25T06:16:06;6.70;99.90
4594;DHT22;2309;51.674;8.368;2023-04-25T06:18:51;6.80;99.90
4594;DHT22;2309;51.674;8.368;2023-04-25T06:36:45;7.10;99.90
4594;DHT22;2309;51.674;8.368;2023-04-25T06:39:12;7.20;99.90
4594;DHT22;2309;51.674;8.368;2023-04-25T06:41:39;7.10;99.90
4594;DHT22;2309;51.674;8.368;2023-04-25T06:44:05;7.10;99.90
4594;DHT22;2309;51.674;8.368;2023-04-25T06:46:32;7.20;99.90
4594;DHT22;2309;51.674;8.368;2023-04-25T06:48:59;7.30;99.90
4594;DHT22;2309;51.674;8.368;2023-04-25T06:53:55;7.40;99.90
4594;DHT22;2309;51.674;8.368;2023-04-25T06:56:28;7.50;99.90
4594;DHT22;2309;51.674;8.368;2023-04-25T06:58:54;7.50;99.90
4594;DHT22;2309;51.674;8.368;2023-04-25T07:03:50;7.60;99.90
4594;DHT22;2309;51.674;8.368;2023-04-25T07:06:17;7.70;99.90
4594;DHT22;2309;51.674;8.368;2023-04-25T07:08:44;7.60;1.00
4594;DHT22;2309;51.674;8.368;2023-04-25T07:13:38;7.60;99.90
4594;DHT22;2309;51.674;8.368;2023-04-25T07:16:05;7.60;99.90
4594;DHT22;2309;51.674;8.368;2023-04-25T07:18:33;7.90;99.90
4594;DHT22;2309;51.674;8.368;2023-04-25T07:21:00;8.20;56.10
4594;DHT22;2309;51.674;8.368;2023-04-25T07:23:27;8.20;1.00
4594;DHT22;2309;51.674;8.368;2023-04-25T07:25:54;8.20;1.00
4594;DHT22;2309;51.674;8.368;2023-04-25T07:28:21;8.20;1.00
4594;DHT22;2309;51.674;8.368;2023-04-25T07:30:51;8.10;1.00
4594;DHT22;2309;51.674;8.368;2023-04-25T07:33:17;7.90;94.60
4594;DHT22;2309;51.674;8.368;2023-04-25T07:35:48;7.90;99.90
4594;DHT22;2309;51.674;8.368;2023-04-25T07:40:42;8.30;1.80
4594;DHT22;2309;51.674;8.368;2023-04-25T07:43:09;8.30;1.00
4594;DHT22;2309;51.674;8.368;2023-04-25T07:45:42;8.50;99.90
4594;DHT22;2309;51.674;8.368;2023-04-25T07:48:09;8.40;99.90
4594;DHT22;2309;51.674;8.368;2023-04-25T07:50:41;8.40;99.90
4594;DHT22;2309;51.674;8.368;2023-04-25T07:53:08;8.50;99.90
4594;DHT22;2309;51.674;8.368;2023-04-25T07:55:36;8.50;99.90
4594;DHT22;2309;51.674;8.368;2023-04-25T08:00:32;8.60;99.90
4594;DHT22;2309;51.674;8.368;2023-04-25T08:02:59;8.60;99.90
4594;DHT22;2309;51.674;8.368;2023-04-25T08:07:54;8.70;99.90
4594;DHT22;2309;51.674;8.368;2023-04-25T08:10:22;8.90;99.90
4594;DHT22;2309;51.674;8.368;2023-04-25T08:12:49;8.90;99.90
4594;DHT22;2309;51.674;8.368;2023-04-25T08:15:16;9.20;68.40
4594;DHT22;2309;51.674;8.368;2023-04-25T08:17:48;9.30;99.90
4594;DHT22;2309;51.674;8.368;2023-04-25T08:20:13;9.50;14.40
4594;DHT22;2309;51.674;8.368;2023-04-25T08:22:42;9.50;1.00
4594;DHT22;2309;51.674;8.368;2023-04-25T08:36:40;9.40;1.00
4594;DHT22;2309;51.674;8.368;2023-04-25T08:59:45;9.60;1.00
4594;DHT22;2309;51.674;8.368;2023-04-25T09:02:08;9.50;1.00
4594;DHT22;2309;51.674;8.368;2023-04-25T09:10:25;9.50;1.00
4594;DHT22;2309;51.674;8.368;2023-04-25T09:13:07;9.70;1.00
4594;DHT22;2309;51.674;8.368;2023-04-25T09:15:26;10.00;1.00
4594;DHT22;2309;51.674;8.368;2023-04-25T09:17:59;10.40;1.00
4594;DHT22;2309;51.674;8.368;2023-04-25T09:20:33;10.30;1.00
4594;DHT22;2309;51.674;8.368;2023-04-25T09:23:04;9.80;1.00
4594;DHT22;2309;51.674;8.368;2023-04-25T09:25:35;9.90;1.00
4594;DHT22;2309;51.674;8.368;2023-04-25T09:28:00;9.10;1.00
4594;DHT22;2309;51.674;8.368;2023-04-25T09:30:31;8.80;1.00
4594;DHT22;2309;51.674;8.368;2023-04-25T09:33:23;8.50;1.00
4594;DHT22;2309;51.674;8.368;2023-04-25T09:36:02;8.70;1.00
4594;DHT22;2309;51.674;8.368;2023-04-25T09:38:41;8.40;1.00
4594;DHT22;2309;51.674;8.368;2023-04-25T09:41:09;8.40;1.00
4594;DHT22;2309;51.674;8.368;2023-04-25T09:43:51;8.30;1.00
4594;DHT22;2309;51.674;8.368;2023-04-25T09:52:36;8.60;1.00
4594;DHT22;2309;51.674;8.368;2023-04-25T09:55:22;8.60;1.00
4594;DHT22;2309;51.674;8.368;2023-04-25T09:57:55;8.70;1.00
4594;DHT22;2309;51.674;8.368;2023-04-25T10:00:41;8.70;1.00
4594;DHT22;2309;51.674;8.368;2023-04-25T10:03:05;8.70;1.00
4594;DHT22;2309;51.674;8.368;2023-04-25T10:05:36;8.90;1.00
4594;DHT22;2309;51.674;8.368;2023-04-25T10:08:05;8.90;1.00
4594;DHT22;2309;51.674;8.368;2023-04-25T10:10:35;9.20;1.00
4594;DHT22;2309;51.674;8.368;2023-04-25T10:13:04;9.40;1.00
4594;DHT22;2309;51.674;8.368;2023-04-25T10:15:34;9.60;1.00
4594;DHT22;2309;51.674;8.368;2023-04-25T10:18:04;9.80;1.00
4594;DHT22;2309;51.674;8.368;2023-04-25T10:20:33;9.80;1.00
4594;DHT22;2309;51.674;8.368;2023-04-25T10:23:04;9.70;1.00
4594;DHT22;2309;51.674;8.368;2023-04-25T10:25:29;9.30;1.00
4594;DHT22;2309;51.674;8.368;2023-04-25T10:27:56;9.20;1.00
4594;DHT22;2309;51.674;8.368;2023-04-25T10:30:26;9.30;1.00
4594;DHT22;2309;51.674;8.368;2023-04-25T10:32:55;9.30;1.00
4594;DHT22;2309;51.674;8.368;2023-04-25T10:35:24;9.60;1.00
4594;DHT22;2309;51.674;8.368;2023-04-25T10:38:22;10.10;1.00
4594;DHT22;2309;51.674;8.368;2023-04-25T10:40:21;10.80;1.00
4594;DHT22;2309;51.674;8.368;2023-04-25T10:42:48;11.00;1.00
4594;DHT22;2309;51.674;8.368;2023-04-25T10:45:17;11.00;1.00
4594;DHT22;2309;51.674;8.368;2023-04-25T10:47:47;10.70;1.00
4594;DHT22;2309;51.674;8.368;2023-04-25T10:50:15;10.40;1.00
4594;DHT22;2309;51.674;8.368;2023-04-25T10:52:42;10.10;1.00
4594;DHT22;2309;51.674;8.368;2023-04-25T10:55:10;9.70;1.00
4594;DHT22;2309;51.674;8.368;2023-04-25T10:57:40;9.60;1.00
4594;DHT22;2309;51.674;8.368;2023-04-25T11:00:10;9.10;1.00
4594;DHT22;2309;51.674;8.368;2023-04-25T11:05:02;8.80;1.00
4594;DHT22;2309;51.674;8.368;2023-04-25T11:07:48;8.80;1.00
4594;DHT22;2309;51.674;8.368;2023-04-25T11:09:57;9.10;1.00
4594;DHT22;2309;51.674;8.368;2023-04-25T11:12:26;9.90;1.00
4594;DHT22;2309;51.674;8.368;2023-04-25T11:14:58;10.00;1.00
4594;DHT22;2309;51.674;8.368;2023-04-25T11:17:21;10.20;1.00
4594;DHT22;2309;51.674;8.368;2023-04-25T11:19:49;10.30;1.00
4594;DHT22;2309;51.674;8.368;2023-04-25T11:22:16;10.40;1.00
4594;DHT22;2309;51.674;8.368;2023-04-25T11:24:43;10.50;1.00
4594;DHT22;2309;51.674;8.368;2023-04-25T11:27:10;10.50;1.00
4594;DHT22;2309;51.674;8.368;2023-04-25T11:29:37;10.80;1.00
4594;DHT22;2309;51.674;8.368;2023-04-25T11:32:04;10.80;1.00
4594;DHT22;2309;51.674;8.368;2023-04-25T11:34:31;12.20;1.00
4594;DHT22;2309;51.674;8.368;2023-04-25T11:36:59;12.60;1.00
4594;DHT22;2309;51.674;8.368;2023-04-25T11:39:26;13.10;1.00
4594;DHT22;2309;51.674;8.368;2023-04-25T11:41:53;12.70;1.00
4594;DHT22;2309;51.674;8.368;2023-04-25T11:44:22;12.50;1.00
4594;DHT22;2309;51.674;8.368;2023-04-25T11:46:51;12.40;1.00
4594;DHT22;2309;51.674;8.368;2023-04-25T11:49:17;12.40;1.00
4594;DHT22;2309;51.674;8.368;2023-04-25T11:51:47;12.30;1.00
4594;DHT22;2309;51.674;8.368;2023-04-25T11:54:13;13.20;1.00
4594;DHT22;2309;51.674;8.368;2023-04-25T11:56:40;13.40;1.00
4594;DHT22;2309;51.674;8.368;2023-04-25T11:59:08;13.40;1.00
4594;DHT22;2309;51.674;8.368;2023-04-25T12:01:35;14.80;1.00
4594;DHT22;2309;51.674;8.368;2023-04-25T12:04:18;14.80;1.00
4594;DHT22;2309;51.674;8.368;2023-04-25T12:06:31;13.70;1.00
4594;DHT22;2309;51.674;8.368;2023-04-25T12:08:58;13.30;1.00
4594;DHT22;2309;51.674;8.368;2023-04-25T12:11:25;12.40;1.00
4594;DHT22;2309;51.674;8.368;2023-04-25T12:13:52;11.80;1.00
4594;DHT22;2309;51.674;8.368;2023-04-25T12:16:19;11.20;1.00
4594;DHT22;2309;51.674;8.368;2023-04-25T12:18:46;11.10;1.00
4594;DHT22;2309;51.674;8.368;2023-04-25T12:21:14;11.00;1.00
4594;DHT22;2309;51.674;8.368;2023-04-25T12:23:41;11.00;1.00
4594;DHT22;2309;51.674;8.368;2023-04-25T12:26:08;11.10;1.00
4594;DHT22;2309;51.674;8.368;2023-04-25T12:28:35;10.90;1.00
4594;DHT22;2309;51.674;8.368;2023-04-25T12:31:04;10.90;1.00
4594;DHT22;2309;51.674;8.368;2023-04-25T12:33:32;10.90;1.00
4594;DHT22;2309;51.674;8.368;2023-04-25T12:36:04;11.30;1.00
4594;DHT22;2309;51.674;8.368;2023-04-25T12:38:35;11.50;1.00
4594;DHT22;2309;51.674;8.368;2023-04-25T12:41:06;11.80;1.00
4594;DHT22;2309;51.674;8.368;2023-04-25T12:43:33;13.50;1.00
4594;DHT22;2309;51.674;8.368;2023-04-25T12:46:00;13.60;1.00
4594;DHT22;2309;51.674;8.368;2023-04-25T12:48:27;14.10;1.00
4594;DHT22;2309;51.674;8.368;2023-04-25T12:50:54;12.90;1.00
4594;DHT22;2309;51.674;8.368;2023-04-25T12:53:22;11.90;1.00
4594;DHT22;2309;51.674;8.368;2023-04-25T12:55:50;12.30;1.00
4594;DHT22;2309;51.674;8.368;2023-04-25T12:58:17;11.20;1.00
4594;DHT22;2309;51.674;8.368;2023-04-25T13:00:45;11.10;1.00
4594;DHT22;2309;51.674;8.368;2023-04-25T13:03:12;10.50;1.00
4594;DHT22;2309;51.674;8.368;2023-04-25T13:05:38;10.40;1.00
4594;DHT22;2309;51.674;8.368;2023-04-25T13:08:06;10.30;1.00
4594;DHT22;2309;51.674;8.368;2023-04-25T13:10:33;10.00;1.00
4594;DHT22;2309;51.674;8.368;2023-04-25T13:12:59;10.00;1.00
4594;DHT22;2309;51.674;8.368;2023-04-25T13:15:27;9.90;1.00
4594;DHT22;2309;51.674;8.368;2023-04-25T13:17:53;10.30;1.00
4594;DHT22;2309;51.674;8.368;2023-04-25T13:20:21;11.10;1.00
4594;DHT22;2309;51.674;8.368;2023-04-25T13:22:48;11.10;1.00
4594;DHT22;2309;51.674;8.368;2023-04-25T13:25:16;11.00;1.00
4594;DHT22;2309;51.674;8.368;2023-04-25T13:27:44;10.50;1.00
4594;DHT22;2309;51.674;8.368;2023-04-25T13:30:12;10.60;1.00
4594;DHT22;2309;51.674;8.368;2023-04-25T13:32:39;10.60;1.00
4594;DHT22;2309;51.674;8.368;2023-04-25T13:35:10;10.40;1.00
4594;DHT22;2309;51.674;8.368;2023-04-25T13:37:35;10.30;1.00
4594;DHT22;2309;51.674;8.368;2023-04-25T13:40:03;9.60;1.00
4594;DHT22;2309;51.674;8.368;2023-04-25T13:42:31;9.40;1.00
4594;DHT22;2309;51.674;8.368;2023-04-25T13:44:58;9.10;1.00
4594;DHT22;2309;51.674;8.368;2023-04-25T13:47:25;8.70;1.00
4594;DHT22;2309;51.674;8.368;2023-04-25T13:49:52;8.60;1.00
4594;DHT22;2309;51.674;8.368;2023-04-25T13:52:19;8.50;1.00
4594;DHT22;2309;51.674;8.368;2023-04-25T13:54:46;8.70;1.00
4594;DHT22;2309;51.674;8.368;2023-04-25T13:57:13;10.50;1.00
4594;DHT22;2309;51.674;8.368;2023-04-25T13:59:40;12.20;1.00
4594;DHT22;2309;51.674;8.368;2023-04-25T14:02:08;13.50;1.00
4594;DHT22;2309;51.674;8.368;2023-04-25T14:04:35;14.80;1.00
4594;DHT22;2309;51.674;8.368;2023-04-25T14:07:04;15.10;1.00
4594;DHT22;2309;51.674;8.368;2023-04-25T14:09:31;14.90;1.00
4594;DHT22;2309;51.674;8.368;2023-04-25T14:11:57;13.40;1.00
4594;DHT22;2309;51.674;8.368;2023-04-25T14:14:24;13.00;1.00
4594;DHT22;2309;51.674;8.368;2023-04-25T14:16:51;13.10;1.00
4594;DHT22;2309;51.674;8.368;2023-04-25T14:19:20;14.80;1.00
4594;DHT22;2309;51.674;8.368;2023-04-25T14:21:50;14.80;1.00
4594;DHT22;2309;51.674;8.368;2023-04-25T14:24:17;15.40;1.00
4594;DHT22;2309;51.674;8.368;2023-04-25T14:26:44;13.90;1.00
4594;DHT22;2309;51.674;8.368;2023-04-25T14:29:10;14.80;1.00
4594;DHT22;2309;51.674;8.368;2023-04-25T14:31:37;15.90;1.00
4594;DHT22;2309;51.674;8.368;2023-04-25T14:34:05;16.70;1.00
4594;DHT22;2309;51.674;8.368;2023-04-25T14:36:32;17.60;1.00
4594;DHT22;2309;51.674;8.368;2023-04-25T14:38:59;17.40;1.00
4594;DHT22;2309;51.674;8.368;2023-04-25T14:41:26;15.10;1.00
4594;DHT22;2309;51.674;8.368;2023-04-25T14:43:53;14.40;1.00
4594;DHT22;2309;51.674;8.368;2023-04-25T14:46:22;14.00;1.00
4594;DHT22;2309;51.674;8.368;2023-04-25T14:48:49;13.90;1.00
4594;DHT22;2309;51.674;8.368;2023-04-25T14:51:16;13.00;1.00
4594;DHT22;2309;51.674;8.368;2023-04-25T14:53:43;12.40;1.00
4594;DHT22;2309;51.674;8.368;2023-04-25T14:56:10;11.90;1.00
4594;DHT22;2309;51.674;8.368;2023-04-25T14:58:37;11.30;1.00
4594;DHT22;2309;51.674;8.368;2023-04-25T15:01:04;10.90;1.00
4594;DHT22;2309;51.674;8.368;2023-04-25T15:03:32;10.80;1.00
4594;DHT22;2309;51.674;8.368;2023-04-25T15:06:06;10.20;1.00
4594;DHT22;2309;51.674;8.368;2023-04-25T15:08:36;9.80;1.00
4594;DHT22;2309;51.674;8.368;2023-04-25T15:11:03;9.50;1.00
4594;DHT22;2309;51.674;8.368;2023-04-25T15:13:30;9.20;1.00
4594;DHT22;2309;51.674;8.368;2023-04-25T15:15:58;9.20;1.00
4594;DHT22;2309;51.674;8.368;2023-04-25T15:18:27;9.40;1.00
4594;DHT22;2309;51.674;8.368;2023-04-25T15:20:55;9.70;1.00
4594;DHT22;2309;51.674;8.368;2023-04-25T15:23:22;9.80;1.00
4594;DHT22;2309;51.674;8.368;2023-04-25T15:25:50;10.00;1.00
4594;DHT22;2309;51.674;8.368;2023-04-25T15:28:18;10.70;1.00
4594;DHT22;2309;51.674;8.368;2023-04-25T15:33:13;14.50;1.00
4594;DHT22;2309;51.674;8.368;2023-04-25T15:35:40;15.60;1.00
4594;DHT22;2309;51.674;8.368;2023-04-25T15:38:08;13.90;1.00
4594;DHT22;2309;51.674;8.368;2023-04-25T15:40:36;12.50;1.00
4594;DHT22;2309;51.674;8.368;2023-04-25T15:43:06;12.50;1.00
4594;DHT22;2309;51.674;8.368;2023-04-25T15:45:32;14.00;1.00
4594;DHT22;2309;51.674;8.368;2023-04-25T15:47:59;14.90;1.00
4594;DHT22;2309;51.674;8.368;2023-04-25T15:50:26;14.20;1.00
4594;DHT22;2309;51.674;8.368;2023-04-25T15:52:53;13.70;1.00
4594;DHT22;2309;51.674;8.368;2023-04-25T15:55:20;14.40;1.00
4594;DHT22;2309;51.674;8.368;2023-04-25T16:00:14;13.10;1.00
4594;DHT22;2309;51.674;8.368;2023-04-25T16:02:42;11.10;1.00
4594;DHT22;2309;51.674;8.368;2023-04-25T16:05:10;10.00;1.00
4594;DHT22;2309;51.674;8.368;2023-04-25T16:07:38;9.50;1.00
4594;DHT22;2309;51.674;8.368;2023-04-25T16:10:05;9.30;1.00
4594;DHT22;2309;51.674;8.368;2023-04-25T16:12:32;9.10;1.00
4594;DHT22;2309;51.674;8.368;2023-04-25T16:14:59;8.90;1.00
4594;DHT22;2309;51.674;8.368;2023-04-25T16:17:26;8.70;1.00
4594;DHT22;2309;51.674;8.368;2023-04-25T16:19:55;8.70;1.00
4594;DHT22;2309;51.674;8.368;2023-04-25T16:22:22;8.70;1.00
4594;DHT22;2309;51.674;8.368;2023-04-25T16:24:49;8.70;91.80
4594;DHT22;2309;51.674;8.368;2023-04-25T16:29:43;7.90;1.00
4594;DHT22;2309;51.674;8.368;2023-04-25T16:32:10;7.40;1.00
4594;DHT22;2309;51.674;8.368;2023-04-25T16:34:38;7.40;1.00
4594;DHT22;2309;51.674;8.368;2023-04-25T16:37:04;7.70;99.90
4594;DHT22;2309;51.674;8.368;2023-04-25T16:39:31;13.80;19.50
4594;DHT22;2309;51.674;8.368;2023-04-25T16:41:58;15.90;1.00
4594;DHT22;2309;51.674;8.368;2023-04-25T16:44:25;17.80;1.00
4594;DHT22;2309;51.674;8.368;2023-04-25T16:46:52;16.10;1.00
4594;DHT22;2309;51.674;8.368;2023-04-25T16:49:19;14.90;1.00
4594;DHT22;2309;51.674;8.368;2023-04-25T16:51:45;12.90;1.00
4594;DHT22;2309;51.674;8.368;2023-04-25T16:54:12;11.40;1.00
4594;DHT22;2309;51.674;8.368;2023-04-25T16:56:39;11.30;1.00
4594;DHT22;2309;51.674;8.368;2023-04-25T16:59:06;13.70;1.00
4594;DHT22;2309;51.674;8.368;2023-04-25T17:01:33;14.20;1.00
4594;DHT22;2309;51.674;8.368;2023-04-25T17:04:01;16.90;1.00
4594;DHT22;2309;51.674;8.368;2023-04-25T17:06:27;14.70;1.00
4594;DHT22;2309;51.674;8.368;2023-04-25T17:08:54;13.30;1.00
4594;DHT22;2309;51.674;8.368;2023-04-25T17:11:21;12.90;1.00
4594;DHT22;2309;51.674;8.368;2023-04-25T17:13:48;12.00;1.00
4594;DHT22;2309;51.674;8.368;2023-04-25T17:16:17;10.90;1.00
4594;DHT22;2309;51.674;8.368;2023-04-25T17:18:46;10.50;5.50
4594;DHT22;2309;51.674;8.368;2023-04-25T17:21:13;10.00;9.20
4594;DHT22;2309;51.674;8.368;2023-04-25T17:23:39;9.90;10.60
4594;DHT22;2309;51.674;8.368;2023-04-25T17:26:08;9.60;15.90
4594;DHT22;2309;51.674;8.368;2023-04-25T17:31:01;9.50;25.20
4594;DHT22;2309;51.674;8.368;2023-04-25T17:33:28;9.20;26.20
4594;DHT22;2309;51.674;8.368;2023-04-25T17:35:55;9.10;29.50
4594;DHT22;2309;51.674;8.368;2023-04-25T17:38:22;8.90;28.30
4594;DHT22;2309;51.674;8.368;2023-04-25T17:40:49;8.70;39.30
4594;DHT22;2309;51.674;8.368;2023-04-25T17:43:16;8.80;39.60
4594;DHT22;2309;51.674;8.368;2023-04-25T17:45:43;8.60;37.80
4594;DHT22;2309;51.674;8.368;2023-04-25T17:48:10;8.50;45.30
4594;DHT22;2309;51.674;8.368;2023-04-25T17:50:37;8.50;47.20
4594;DHT22;2309;51.674;8.368;2023-04-25T17:53:04;8.30;50.10
4594;DHT22;2309;51.674;8.368;2023-04-25T17:55:31;8.20;48.10
4594;DHT22;2309;51.674;8.368;2023-04-25T17:57:58;8.40;49.60